Time;durP1;ratioP1;P1;durP2;ratioP2;P2;SDS_P1;SDS_P2;PMS_P1;PMS_P2;Temp;Humidity;BMP_temperature;BMP_pressure;BME280_temperature;BME280_humidity;BME280_pressure;Samples;Min_cycle;Max_cycle;Signal;HPM_P1;HPM_P2
2024/01/07 02:08:58;;;;;;;8.73;3.83;;;;;;;7.40;76.24;100252.63;4711397;30;20281;-75
2024/01/07 02:51:35;;;;;;;;;;;;;;;;;;;;;
2024/01/07 03:45:00;;;;;;;;;;;;;;;;;;;;;
2024/01/07 05:28:22;;;;;;;;;;;;;;;;;;;;;
2024/01/07 08:03:09;;;;;;;12.70;6.97;;;;;;;7.13;73.09;100527.44;3056356;23;20243;-67
2024/01/07 08:05:38;;;;;;;11.93;6.70;;;;;;;7.15;72.73;100521.09;4898553;29;20298;-66
2024/01/07 08:08:07;;;;;;;11.43;6.67;;;;;;;7.18;72.51;100527.91;4906908;29;20238;-66
2024/01/07 08:10:36;;;;;;;13.17;8.03;;;;;;;7.24;72.26;100531.84;4907051;29;20222;-67
2024/01/07 08:13:06;;;;;;;12.23;6.93;;;;;;;7.26;71.34;100535.19;4907837;29;20215;-67
2024/01/07 08:15:34;;;;;;;12.90;7.10;;;;;;;7.23;71.51;100540.72;4905113;29;20213;-68
2024/01/07 08:18:03;;;;;;;12.07;7.43;;;;;;;7.26;71.58;100543.13;4906286;29;20223;-67
2024/01/07 08:20:33;;;;;;;13.70;7.43;;;;;;;7.26;71.39;100548.41;4912018;29;20212;-66
2024/01/07 08:23:01;;;;;;;12.23;6.83;;;;;;;7.22;71.03;100544.31;4909220;29;20219;-65
2024/01/07 08:25:30;;;;;;;11.00;6.77;;;;;;;7.25;71.30;100554.63;4902443;29;21061;-69
2024/01/07 08:27:59;;;;;;;11.33;6.77;;;;;;;7.23;71.13;100556.53;4904709;29;20295;-65
2024/01/07 08:30:28;;;;;;;14.07;7.47;;;;;;;7.25;71.10;100562.53;4905235;29;20211;-66
2024/01/07 08:32:56;;;;;;;14.00;7.47;;;;;;;7.31;71.09;100562.03;4900290;29;20675;-67
2024/01/07 08:35:25;;;;;;;12.70;7.07;;;;;;;7.28;70.70;100557.03;4902903;29;20306;-69
2024/01/07 08:37:56;;;;;;;15.03;7.90;;;;;;;7.17;70.45;100568.44;4904221;29;20216;-67
2024/01/07 08:40:25;;;;;;;14.90;7.70;;;;;;;7.10;71.21;100570.75;4910381;29;20236;-67
2024/01/07 08:42:54;;;;;;;12.87;7.43;;;;;;;7.02;70.98;100573.16;4909923;29;20215;-66
2024/01/07 08:45:23;;;;;;;14.00;7.40;;;;;;;7.00;71.05;100574.22;4910126;29;20234;-65
2024/01/07 08:47:51;;;;;;;12.43;7.17;;;;;;;7.02;70.99;100581.06;4907147;29;20262;-66
2024/01/07 08:50:20;;;;;;;12.00;6.43;;;;;;;7.10;70.89;100583.94;4911985;29;20227;-66
2024/01/07 08:52:53;;;;;;;13.00;6.87;;;;;;;7.11;70.58;100592.69;4908465;29;20212;-71
2024/01/07 08:55:22;;;;;;;12.60;7.07;;;;;;;7.08;69.92;100595.53;4904040;29;20217;-65
2024/01/07 08:57:51;;;;;;;10.37;6.30;;;;;;;7.04;68.99;100594.09;4905290;29;20215;-66
2024/01/07 09:00:25;;;;;;;12.90;6.13;;;;;;;7.00;68.49;100598.81;4905820;29;20223;-68
2024/01/07 09:02:54;;;;;;;10.40;6.30;;;;;;;6.95;67.99;100600.94;4907907;29;20313;-66
2024/01/07 09:05:24;;;;;;;10.90;6.07;;;;;;;6.83;67.67;100601.94;4906951;29;20859;-66
2024/01/07 09:07:52;;;;;;;10.70;5.87;;;;;;;6.82;67.41;100602.88;4906915;29;20234;-67
2024/01/07 09:10:24;;;;;;;14.50;6.03;;;;;;;6.80;67.09;100602.16;4908432;29;20222;-66
2024/01/07 09:12:53;;;;;;;11.30;6.13;;;;;;;6.76;66.61;100616.56;4908050;29;20221;-67
2024/01/07 09:15:22;;;;;;;11.87;6.17;;;;;;;6.70;66.73;100617.84;4908386;29;20211;-66
2024/01/07 09:17:51;;;;;;;11.13;6.03;;;;;;;6.64;66.86;100622.78;4904278;29;20211;-66
2024/01/07 09:20:20;;;;;;;11.70;6.10;;;;;;;6.63;66.84;100627.22;4906478;29;20267;-65
2024/01/07 09:22:48;;;;;;;12.00;6.70;;;;;;;6.60;66.91;100631.88;4906922;29;20302;-66
2024/01/07 09:25:17;;;;;;;10.97;6.03;;;;;;;6.63;66.95;100631.63;4903861;29;20681;-67
2024/01/07 09:27:46;;;;;;;10.67;5.70;;;;;;;6.67;66.34;100638.34;4906563;29;20692;-66
2024/01/07 09:30:15;;;;;;;10.70;6.23;;;;;;;6.60;66.39;100642.41;4905975;29;20245;-67
2024/01/07 09:32:43;;;;;;;11.47;5.97;;;;;;;6.61;65.62;100644.91;4905017;29;20313;-66
2024/01/07 09:35:12;;;;;;;10.40;5.63;;;;;;;6.56;65.50;100646.25;4906350;29;20226;-67
2024/01/07 09:37:40;;;;;;;10.27;6.00;;;;;;;6.46;65.95;100658.44;4905578;29;20210;-66
2024/01/07 09:40:10;;;;;;;9.77;5.47;;;;;;;6.48;65.89;100649.47;4906289;29;20266;-65
2024/01/07 09:42:39;;;;;;;12.70;6.13;;;;;;;6.51;65.04;100651.03;4907887;29;20239;-65
2024/01/07 09:45:13;;;;;;;9.17;5.27;;;;;;;6.53;65.00;100657.00;4906667;29;20210;-66
2024/01/07 09:47:43;;;;;;;8.67;4.97;;;;;;;6.45;63.96;100654.97;4907564;29;20246;-66
2024/01/07 09:50:16;;;;;;;10.83;5.60;;;;;;;6.40;63.94;100663.22;4908513;29;20298;-67
2024/01/07 09:52:52;;;;;;;9.27;5.50;;;;;;;6.39;64.17;100665.97;4907308;29;20220;-66
2024/01/07 09:55:29;;;;;;;12.00;5.47;;;;;;;6.34;63.78;100666.31;4905075;29;20254;-66
2024/01/07 09:57:57;;;;;;;10.33;5.93;;;;;;;6.26;63.63;100670.47;4907376;29;20660;-69
2024/01/07 10:00:30;;;;;;;8.83;5.30;;;;;;;6.21;63.94;100665.56;4906300;29;20219;-65
2024/01/07 10:02:59;;;;;;;10.10;5.07;;;;;;;6.26;64.26;100668.69;4907810;29;20331;-65
2024/01/07 10:05:27;;;;;;;8.63;5.43;;;;;;;6.31;64.05;100679.72;4906606;29;20293;-65
2024/01/07 10:07:57;;;;;;;9.67;5.30;;;;;;;6.35;63.98;100683.78;4905670;29;20593;-65
2024/01/07 10:10:25;;;;;;;9.67;5.33;;;;;;;6.27;63.76;100682.69;4906951;29;20284;-65
2024/01/07 10:12:56;;;;;;;10.07;5.53;;;;;;;6.23;63.75;100682.09;4905921;29;20680;-66
2024/01/07 10:15:25;;;;;;;10.03;5.17;;;;;;;6.25;63.69;100679.34;4903829;29;20214;-65
2024/01/07 10:18:05;;;;;;;9.07;5.00;;;;;;;6.34;63.75;100679.47;4907672;29;20211;-66
2024/01/07 10:20:35;;;;;;;10.13;5.60;;;;;;;6.38;63.49;100680.09;4907654;29;20224;-66
2024/01/07 10:23:03;;;;;;;9.60;5.03;;;;;;;6.32;63.12;100681.41;4907428;29;20213;-66
2024/01/07 10:25:33;;;;;;;10.30;5.10;;;;;;;6.46;63.03;100684.78;4906617;29;20282;-66
2024/01/07 10:28:04;;;;;;;9.80;5.63;;;;;;;6.40;62.69;100689.56;4904160;29;20782;-65
2024/01/07 10:30:33;;;;;;;8.67;4.90;;;;;;;6.38;61.74;100691.47;4906838;29;20214;-66
2024/01/07 10:33:06;;;;;;;9.20;4.90;;;;;;;6.34;62.10;100684.75;4906762;29;20269;-66
2024/01/07 10:35:35;;;;;;;8.90;5.20;;;;;;;6.25;62.19;100689.88;4903920;29;20296;-65
2024/01/07 10:38:04;;;;;;;8.00;4.90;;;;;;;6.31;62.47;100685.00;4906981;29;20227;-65
2024/01/07 10:40:34;;;;;;;10.13;5.07;;;;;;;6.38;62.30;100680.09;4904528;29;20607;-66
2024/01/07 10:43:03;;;;;;;8.00;4.60;;;;;;;6.39;62.22;100693.16;4903895;29;20265;-66
2024/01/07 10:45:32;;;;;;;9.10;5.03;;;;;;;6.46;62.35;100692.69;4904317;29;20295;-66
2024/01/07 10:48:09;;;;;;;8.90;5.20;;;;;;;6.49;61.91;100695.09;4907608;29;20238;-65
2024/01/07 10:50:39;;;;;;;8.30;4.67;;;;;;;6.35;61.78;100696.97;4904616;29;20287;-68
2024/01/07 10:53:12;;;;;;;12.17;5.33;;;;;;;6.38;62.21;100693.28;4908210;29;20288;-66
2024/01/07 10:55:45;;;;;;;9.40;5.40;;;;;;;6.44;62.29;100695.44;4905993;29;20296;-66
2024/01/07 10:58:13;;;;;;;9.40;4.93;;;;;;;6.50;62.47;100699.41;4906524;29;20672;-66
2024/01/07 11:00:43;;;;;;;9.63;4.87;;;;;;;6.55;62.31;100697.25;4905995;29;20304;-66
2024/01/07 11:03:18;;;;;;;10.23;5.70;;;;;;;6.58;61.84;100702.31;4906575;29;20307;-66
2024/01/07 11:05:53;;;;;;;10.23;5.10;;;;;;;6.62;61.74;100698.47;4902549;29;20228;-65
2024/01/07 11:08:27;;;;;;;8.63;4.50;;;;;;;6.54;61.10;100711.38;4906833;29;20275;-64
2024/01/07 11:11:04;;;;;;;9.47;5.17;;;;;;;6.48;61.26;100702.16;4906840;29;20232;-66
2024/01/07 11:13:34;;;;;;;10.53;5.13;;;;;;;6.51;61.27;100707.19;4905502;29;20747;-67
2024/01/07 11:16:03;;;;;;;8.40;4.83;;;;;;;6.50;61.37;100705.53;4904540;29;20287;-66
2024/01/07 11:18:35;;;;;;;10.40;5.60;;;;;;;6.55;61.13;100697.25;4906755;29;20552;-66
2024/01/07 11:21:05;;;;;;;10.87;5.70;;;;;;;6.46;60.75;100708.50;4903988;29;20214;-66
2024/01/07 11:23:36;;;;;;;9.50;5.10;;;;;;;6.45;61.08;100712.06;4906693;29;20318;-65
2024/01/07 11:26:05;;;;;;;11.97;5.73;;;;;;;6.39;60.96;100708.13;4906262;29;20205;-66
2024/01/07 11:28:47;;;;;;;11.03;6.03;;;;;;;6.34;61.02;100711.09;4903659;29;20253;-66
2024/01/07 11:31:17;;;;;;;10.40;5.67;;;;;;;6.35;60.96;100717.19;4906425;29;20723;-66
2024/01/07 11:33:48;;;;;;;10.53;5.70;;;;;;;6.24;60.14;100718.03;4905503;29;20214;-66
2024/01/07 11:36:18;;;;;;;13.40;6.00;;;;;;;6.09;60.16;100721.78;4903538;29;20656;-65
2024/01/07 11:38:48;;;;;;;8.40;4.50;;;;;;;6.02;60.41;100725.81;4903931;29;20211;-69
2024/01/07 11:41:22;;;;;;;11.87;6.63;;;;;;;6.06;60.40;100722.03;4904333;29;20202;-64
2024/01/07 11:43:55;;;;;;;8.93;5.10;;;;;;;6.17;60.55;100716.78;4902315;29;20221;-66
2024/01/07 11:46:24;;;;;;;9.73;6.03;;;;;;;6.21;60.47;100720.03;4905327;29;20281;-66
2024/01/07 11:48:58;;;;;;;9.87;5.80;;;;;;;6.19;60.70;100712.25;4905724;29;21029;-66
2024/01/07 11:51:27;;;;;;;10.90;5.67;;;;;;;6.25;61.28;100714.41;4905539;29;20220;-65
2024/01/07 11:53:56;;;;;;;12.13;5.90;;;;;;;6.24;61.18;100718.03;4907409;29;20282;-66
2024/01/07 11:56:25;;;;;;;9.90;5.27;;;;;;;6.22;60.32;100719.94;4909119;29;20240;-65
2024/01/07 11:58:56;;;;;;;9.00;5.33;;;;;;;6.24;60.06;100718.03;4907871;29;20218;-67
2024/01/07 12:01:26;;;;;;;10.30;6.00;;;;;;;6.35;60.39;100712.78;4907718;29;20285;-65
2024/01/07 12:03:56;;;;;;;11.57;5.47;;;;;;;6.50;60.36;100715.22;4909156;29;20249;-66
2024/01/07 12:06:25;;;;;;;10.87;6.50;;;;;;;6.62;60.21;100712.47;4908181;29;20393;-65
2024/01/07 12:08:54;;;;;;;11.37;6.47;;;;;;;6.63;59.78;100710.69;4909532;29;20214;-65
2024/01/07 12:11:23;;;;;;;11.10;6.03;;;;;;;6.73;59.56;100711.66;4908644;29;20249;-65
2024/01/07 12:13:53;;;;;;;10.27;5.80;;;;;;;6.84;59.20;100709.06;4907920;29;20230;-64
2024/01/07 12:16:21;;;;;;;12.43;6.20;;;;;;;6.80;59.14;100715.50;4907892;29;20311;-66
2024/01/07 12:18:50;;;;;;;12.43;6.17;;;;;;;6.70;59.74;100711.88;4907058;29;20216;-65
2024/01/07 12:21:22;;;;;;;11.67;6.77;;;;;;;6.61;59.81;100717.84;4909639;29;20218;-68
2024/01/07 12:23:52;;;;;;;10.77;6.10;;;;;;;6.59;60.08;100719.81;4909985;29;20233;-66
2024/01/07 12:26:21;;;;;;;13.10;6.53;;;;;;;6.57;60.18;100717.28;4907546;29;20311;-67
2024/01/07 12:28:54;;;;;;;10.97;6.57;;;;;;;6.56;59.99;100728.75;4906845;29;20246;-65
2024/01/07 12:31:24;;;;;;;9.57;5.70;;;;;;;6.48;59.85;100723.25;4909963;29;20246;-65
2024/01/07 12:33:53;;;;;;;10.30;5.27;;;;;;;6.43;60.32;100726.19;4907571;29;20214;-65
2024/01/07 12:36:24;;;;;;;11.37;6.00;;;;;;;6.41;60.17;100727.28;4908747;29;20209;-64
2024/01/07 12:38:54;;;;;;;10.67;6.13;;;;;;;6.39;60.30;100740.56;4906659;29;20221;-65
2024/01/07 12:41:23;;;;;;;12.27;6.40;;;;;;;6.22;59.78;100721.72;4905838;29;20776;-64
2024/01/07 12:43:51;;;;;;;10.93;6.10;;;;;;;6.19;60.17;100738.56;4905406;29;20217;-70
2024/01/07 12:46:20;;;;;;;12.00;6.40;;;;;;;6.29;59.91;100734.31;4905764;29;20584;-66
2024/01/07 12:48:49;;;;;;;9.03;5.00;;;;;;;6.29;58.49;100730.84;4909523;29;21066;-66
2024/01/07 12:51:18;;;;;;;11.63;6.00;;;;;;;6.30;58.06;100736.00;4907411;29;20238;-66
2024/01/07 12:53:51;;;;;;;11.50;5.77;;;;;;;6.29;57.09;100736.94;4908633;29;20202;-66
2024/01/07 12:56:19;;;;;;;9.20;5.27;;;;;;;6.24;57.12;100738.25;4905077;29;20209;-63
2024/01/07 12:58:47;;;;;;;13.90;5.43;;;;;;;6.29;59.40;100738.72;4904000;29;20302;-65
2024/01/07 13:01:15;;;;;;;10.00;5.20;;;;;;;6.37;59.27;100745.13;4904985;29;20301;-66
2024/01/07 13:03:44;;;;;;;11.53;5.40;;;;;;;6.40;57.43;100752.78;4908295;29;20222;-64
2024/01/07 13:06:12;;;;;;;11.30;5.20;;;;;;;6.41;56.84;100756.28;4906524;29;20209;-64
2024/01/07 13:08:40;;;;;;;8.20;4.67;;;;;;;6.38;56.30;100754.69;4903857;29;20213;-64
2024/01/07 13:11:13;;;;;;;9.37;5.17;;;;;;;6.39;56.15;100761.66;4905199;29;20246;-68
2024/01/07 13:13:42;;;;;;;12.50;5.97;;;;;;;6.30;56.33;100757.06;4903443;29;20254;-66
2024/01/07 13:16:11;;;;;;;10.10;5.37;;;;;;;6.30;56.04;100762.34;4909463;29;20263;-66
2024/01/07 13:18:39;;;;;;;11.23;5.10;;;;;;;6.23;56.13;100770.81;4909682;29;20218;-67
2024/01/07 13:21:07;;;;;;;11.53;5.73;;;;;;;6.17;56.46;100772.06;4905920;29;20209;-66
2024/01/07 13:23:35;;;;;;;9.37;4.97;;;;;;;6.13;56.75;100772.44;4905773;29;20233;-65
2024/01/07 13:26:05;;;;;;;13.30;6.00;;;;;;;6.08;56.65;100779.81;4905577;29;20243;-66
2024/01/07 13:28:35;;;;;;;9.77;5.13;;;;;;;6.07;56.66;100776.31;4906614;29;20209;-67
2024/01/07 13:31:04;;;;;;;10.17;5.03;;;;;;;5.96;56.50;100777.13;4906716;29;20320;-66
2024/01/07 13:33:32;;;;;;;11.33;5.43;;;;;;;5.92;56.73;100774.81;4908488;29;20219;-65
2024/01/07 13:36:02;;;;;;;10.80;5.67;;;;;;;5.97;56.99;100773.56;4904644;29;20228;-65
2024/01/07 13:38:30;;;;;;;10.50;5.60;;;;;;;6.03;56.97;100788.06;4907907;29;20308;-67
2024/01/07 13:40:59;;;;;;;11.37;5.97;;;;;;;6.04;57.00;100789.72;4904493;29;20221;-66
2024/01/07 13:43:29;;;;;;;9.17;4.73;;;;;;;5.91;55.51;100796.81;4907661;29;20213;-65
2024/01/07 13:45:58;;;;;;;9.27;5.30;;;;;;;5.74;55.56;100794.53;4906420;29;20216;-65
2024/01/07 13:48:27;;;;;;;9.87;5.27;;;;;;;5.72;55.69;100791.19;4907445;29;20222;-65
2024/01/07 13:50:57;;;;;;;12.10;6.13;;;;;;;5.66;55.90;100792.44;4905246;29;20239;-66
2024/01/07 13:53:26;;;;;;;12.03;5.63;;;;;;;5.67;55.99;100794.97;4905870;29;20300;-65
2024/01/07 13:55:54;;;;;;;11.63;5.80;;;;;;;5.74;56.18;100800.63;4907212;29;20221;-66
2024/01/07 13:58:24;;;;;;;10.13;5.20;;;;;;;5.81;56.52;100806.28;4905605;29;20284;-65
2024/01/07 14:00:52;;;;;;;10.13;5.13;;;;;;;5.85;56.42;100813.88;4905714;29;20265;-65
2024/01/07 14:03:22;;;;;;;10.80;5.13;;;;;;;5.80;56.36;100812.53;4906001;29;20252;-64
2024/01/07 14:05:51;;;;;;;9.20;5.03;;;;;;;5.79;56.37;100822.22;4906239;29;20272;-65
2024/01/07 14:08:18;;;;;;;12.77;6.10;;;;;;;5.82;56.47;100819.34;4907167;29;20233;-65
2024/01/07 14:10:48;;;;;;;12.97;5.70;;;;;;;5.80;56.20;100818.63;4906833;29;20300;-64
2024/01/07 14:13:16;;;;;;;9.13;5.07;;;;;;;5.83;56.46;100825.44;4905952;29;20216;-64
2024/01/07 14:15:44;;;;;;;11.80;5.70;;;;;;;5.87;56.40;100822.50;4906520;29;20300;-65
2024/01/07 14:18:15;;;;;;;11.80;6.03;;;;;;;5.90;56.63;100831.97;4907247;29;20209;-64
2024/01/07 14:20:45;;;;;;;10.33;5.70;;;;;;;5.81;55.80;100836.09;4905972;29;20299;-65
2024/01/07 14:23:13;;;;;;;8.73;5.30;;;;;;;5.86;56.00;100841.88;4905922;29;20237;-64
2024/01/07 14:25:41;;;;;;;10.00;5.70;;;;;;;5.83;55.93;100841.25;4903016;29;20221;-61
2024/01/07 14:28:09;;;;;;;11.27;5.70;;;;;;;5.86;56.11;100841.88;4906213;29;20212;-62
2024/01/07 14:30:37;;;;;;;10.00;5.27;;;;;;;5.79;56.00;100845.91;4904796;29;20312;-66
2024/01/07 14:33:07;;;;;;;11.47;5.90;;;;;;;5.63;54.79;100847.91;4906461;29;20212;-64
2024/01/07 14:35:35;;;;;;;10.07;5.10;;;;;;;5.50;54.98;100845.31;4904384;29;20680;-62
2024/01/07 14:38:05;;;;;;;8.43;4.80;;;;;;;5.29;55.00;100846.78;4904167;29;20300;-63
2024/01/07 14:40:35;;;;;;;11.10;4.97;;;;;;;5.22;55.06;100850.78;4905833;29;20280;-65
2024/01/07 14:43:04;;;;;;;12.50;5.67;;;;;;;5.27;55.04;100859.22;4904138;29;20213;-64
2024/01/07 14:45:32;;;;;;;11.70;5.60;;;;;;;5.27;55.12;100859.22;4905404;29;20255;-65
2024/01/07 14:48:00;;;;;;;10.73;5.20;;;;;;;5.23;54.97;100860.34;4904525;29;20229;-63
2024/01/07 14:50:28;;;;;;;7.53;4.60;;;;;;;5.11;54.49;100864.63;4896717;29;21002;-65
2024/01/07 14:53:07;;;;;;;9.30;5.10;;;;;;;5.15;55.19;100874.00;4906075;29;20215;-62
2024/01/07 14:55:35;;;;;;;9.20;4.93;;;;;;;5.22;54.98;100879.69;4902695;29;20307;-65
2024/01/07 14:58:04;;;;;;;9.57;4.57;;;;;;;5.27;54.09;100888.13;4904890;29;20209;-71
2024/01/07 15:00:31;;;;;;;10.00;4.73;;;;;;;5.12;53.67;100889.13;4905820;29;20884;-65
2024/01/07 15:02:59;;;;;;;9.97;5.30;;;;;;;5.03;53.67;100898.47;4903853;29;20280;-66
2024/01/07 15:05:27;;;;;;;9.53;4.77;;;;;;;5.03;54.26;100895.00;4904844;29;20288;-64
2024/01/07 15:07:55;;;;;;;10.00;5.50;;;;;;;5.07;54.60;100899.97;4903328;29;20213;-64
2024/01/07 15:10:25;;;;;;;9.43;4.90;;;;;;;5.07;54.32;100901.75;4902740;29;20212;-66
2024/01/07 15:12:53;;;;;;;11.60;4.73;;;;;;;5.13;54.48;100903.97;4906221;29;20326;-68
2024/01/07 15:15:33;;;;;;;9.73;4.80;;;;;;;5.17;54.59;100911.56;4906436;29;20215;-63
2024/01/07 15:18:03;;;;;;;10.40;5.00;;;;;;;5.16;54.85;100915.13;4906207;29;20615;-65
2024/01/07 15:20:31;;;;;;;10.57;5.03;;;;;;;5.14;55.14;100910.91;4905427;29;20257;-65
2024/01/07 15:23:00;;;;;;;10.83;5.23;;;;;;;5.13;55.25;100919.75;4908039;29;20220;-66
2024/01/07 15:25:29;;;;;;;10.17;5.13;;;;;;;5.11;55.31;100922.47;4904880;29;20208;-66
2024/01/07 15:27:58;;;;;;;11.50;5.57;;;;;;;5.09;55.44;100924.38;4906459;29;20209;-65
2024/01/07 15:30:26;;;;;;;10.57;4.67;;;;;;;5.10;55.63;100936.56;4909803;29;20245;-66
2024/01/07 15:32:55;;;;;;;9.23;5.03;;;;;;;5.08;55.25;100933.22;4908789;29;20643;-65
2024/01/07 15:35:23;;;;;;;9.80;4.80;;;;;;;5.08;55.85;100935.84;4907458;29;20692;-65
2024/01/07 15:37:51;;;;;;;8.97;4.77;;;;;;;5.04;55.75;100944.00;4907830;29;20224;-66
2024/01/07 15:40:20;;;;;;;9.50;5.03;;;;;;;5.00;56.04;100947.81;4909813;29;20324;-67
2024/01/07 15:42:50;;;;;;;11.03;4.73;;;;;;;4.91;55.81;100950.09;4907577;29;20225;-67
2024/01/07 15:45:19;;;;;;;12.00;5.07;;;;;;;4.86;55.99;100967.94;4909852;29;21212;-67
2024/01/07 15:47:47;;;;;;;10.07;4.87;;;;;;;4.85;56.23;100973.28;4907592;29;20207;-66
2024/01/07 15:50:17;;;;;;;9.33;4.90;;;;;;;4.85;56.41;100979.38;4907588;29;20656;-69
2024/01/07 15:52:46;;;;;;;9.13;4.83;;;;;;;4.75;56.25;100978.28;4907888;29;20236;-66
2024/01/07 15:55:15;;;;;;;10.97;4.77;;;;;;;4.72;56.05;100977.66;4907345;29;20241;-65
2024/01/07 15:57:44;;;;;;;9.73;4.57;;;;;;;4.68;55.16;100977.00;4907284;29;20212;-67
2024/01/07 16:00:15;;;;;;;7.67;4.07;;;;;;;4.57;54.76;100986.53;4908385;29;20223;-65
2024/01/07 16:02:45;;;;;;;10.07;4.33;;;;;;;4.50;55.09;100988.66;4906844;29;20312;-66
2024/01/07 16:05:14;;;;;;;8.03;4.57;;;;;;;4.51;55.50;100990.34;4909886;29;20224;-66
2024/01/07 16:07:42;;;;;;;9.63;4.63;;;;;;;4.58;55.85;100996.91;4907924;29;20217;-67
2024/01/07 16:10:11;;;;;;;8.60;4.30;;;;;;;4.62;55.69;100994.94;4910739;29;20208;-65
2024/01/07 16:12:40;;;;;;;8.43;3.83;;;;;;;4.65;55.18;101003.47;4908388;29;20327;-63
2024/01/07 16:15:08;;;;;;;8.83;4.13;;;;;;;4.62;54.64;101001.03;4906300;29;20205;-66
2024/01/07 16:17:39;;;;;;;9.40;3.90;;;;;;;4.69;54.91;101004.09;4909159;29;20219;-67
2024/01/07 16:20:11;;;;;;;6.77;3.57;;;;;;;4.72;54.41;101007.41;4909676;29;20209;-65
2024/01/07 16:22:40;;;;;;;7.13;3.73;;;;;;;4.68;54.41;101020.81;4908857;29;20302;-66
2024/01/07 16:25:08;;;;;;;7.97;3.43;;;;;;;4.56;54.38;101014.56;4909890;29;20324;-66
2024/01/07 16:27:37;;;;;;;7.53;3.80;;;;;;;4.52;54.55;101019.16;4908484;29;20758;-66
2024/01/07 16:30:06;;;;;;;9.37;4.10;;;;;;;4.51;54.51;101016.63;4909601;29;20219;-68
2024/01/07 16:32:34;;;;;;;8.20;3.73;;;;;;;4.55;54.96;101028.63;4909040;29;20319;-66
2024/01/07 16:35:04;;;;;;;8.27;3.60;;;;;;;4.52;55.09;101034.06;4909333;29;20209;-66
2024/01/07 16:37:33;;;;;;;10.10;3.77;;;;;;;4.49;55.16;101037.72;4909199;29;20223;-69
2024/01/07 16:40:01;;;;;;;7.93;3.70;;;;;;;4.43;55.17;101045.16;4909153;29;20202;-67
2024/01/07 16:42:31;;;;;;;6.60;3.50;;;;;;;4.35;54.78;101050.03;4907365;29;20217;-66
2024/01/07 16:44:59;;;;;;;6.43;3.50;;;;;;;4.24;54.78;101055.09;4907780;29;20240;-67
2024/01/07 16:47:28;;;;;;;7.00;2.80;;;;;;;4.16;54.38;101055.56;4909870;29;20220;-65
2024/01/07 16:49:56;;;;;;;5.67;2.70;;;;;;;4.21;54.55;101056.13;4910919;29;20212;-65
2024/01/07 16:52:29;;;;;;;7.40;2.77;;;;;;;4.24;54.11;101062.97;4908186;29;20236;-65
2024/01/07 16:54:57;;;;;;;6.27;2.30;;;;;;;4.17;53.04;101057.25;4908821;29;20223;-65
2024/01/07 16:57:25;;;;;;;8.27;2.77;;;;;;;4.14;53.26;101065.28;4908799;29;20307;-65
2024/01/07 16:59:53;;;;;;;4.90;2.30;;;;;;;4.08;52.74;101061.28;4910149;29;20230;-66
2024/01/07 17:02:22;;;;;;;4.43;2.30;;;;;;;4.07;53.14;101067.47;4907880;29;20227;-66
2024/01/07 17:04:51;;;;;;;4.97;2.47;;;;;;;4.05;52.67;101087.69;4910048;29;20812;-65
2024/01/07 17:07:20;;;;;;;4.37;2.13;;;;;;;3.96;52.24;101088.25;4909616;29;20204;-65
2024/01/07 17:09:49;;;;;;;4.03;2.17;;;;;;;3.73;52.05;101084.34;4906627;29;20999;-65
2024/01/07 17:12:18;;;;;;;4.50;2.10;;;;;;;3.65;51.91;101088.34;4908897;29;20240;-65
2024/01/07 17:14:48;;;;;;;4.13;1.83;;;;;;;3.62;52.42;101086.75;4907547;29;20217;-65
2024/01/07 17:17:16;;;;;;;4.03;2.17;;;;;;;3.64;51.91;101094.53;4907380;29;20216;-65
2024/01/07 17:19:45;;;;;;;4.37;1.93;;;;;;;3.59;51.94;101099.22;4910717;29;20724;-65
2024/01/07 17:22:14;;;;;;;4.17;1.80;;;;;;;3.61;52.13;101113.06;4911091;29;20215;-64
2024/01/07 17:24:43;;;;;;;3.53;1.87;;;;;;;3.58;51.72;101111.47;4907477;29;20232;-64
2024/01/07 17:27:12;;;;;;;3.87;1.93;;;;;;;3.60;52.00;101117.50;4909949;29;20307;-68
2024/01/07 17:29:41;;;;;;;4.90;2.07;;;;;;;3.60;51.45;101116.66;4910244;29;20223;-64
2024/01/07 17:32:11;;;;;;;2.97;1.80;;;;;;;3.64;51.76;101128.63;4911019;29;20207;-65
2024/01/07 17:34:40;;;;;;;4.10;2.20;;;;;;;3.65;51.49;101125.94;4909508;29;20298;-65
2024/01/07 17:37:09;;;;;;;5.10;1.80;;;;;;;3.60;51.24;101133.22;4907967;29;20245;-66
2024/01/07 17:39:37;;;;;;;3.73;1.70;;;;;;;3.52;51.30;101130.16;4910321;29;20283;-66
2024/01/07 17:42:07;;;;;;;3.03;1.40;;;;;;;3.47;51.58;101121.72;4910515;29;20690;-66
2024/01/07 17:44:39;;;;;;;4.10;1.90;;;;;;;3.42;51.40;101136.03;4910000;29;20255;-64
2024/01/07 17:47:10;;;;;;;3.80;1.60;;;;;;;3.42;51.44;101138.66;4910844;29;20874;-65
2024/01/07 17:49:39;;;;;;;2.77;1.27;;;;;;;3.35;51.10;101136.38;4909980;29;20327;-66
2024/01/07 17:52:07;;;;;;;3.53;1.90;;;;;;;3.36;51.56;101135.44;4909400;29;20215;-65
2024/01/07 17:54:37;;;;;;;2.97;1.57;;;;;;;3.37;51.13;101144.16;4910937;29;20212;-65
2024/01/07 17:57:06;;;;;;;3.03;1.57;;;;;;;3.35;50.58;101144.22;4909420;29;20241;-65
2024/01/07 17:59:34;;;;;;;3.23;1.63;;;;;;;3.35;50.71;101149.47;4909826;29;20219;-64
2024/01/07 18:02:06;;;;;;;3.87;1.90;;;;;;;3.30;50.71;101156.75;4909512;29;20264;-64
2024/01/07 18:04:35;;;;;;;5.30;1.70;;;;;;;3.21;50.56;101152.03;4909054;29;20680;-65
2024/01/07 18:07:04;;;;;;;3.57;1.60;;;;;;;3.22;50.96;101153.72;4910717;29;20275;-63
2024/01/07 18:09:32;;;;;;;4.50;1.50;;;;;;;3.12;50.71;101163.00;4910212;29;20215;-65
2024/01/07 18:12:00;;;;;;;4.47;1.37;;;;;;;3.09;50.27;101172.81;4908794;29;20215;-64
2024/01/07 18:14:28;;;;;;;3.73;1.47;;;;;;;3.01;50.86;101160.13;4910019;29;20242;-65
2024/01/07 18:16:56;;;;;;;2.73;1.47;;;;;;;2.96;51.25;101163.00;4909526;29;20908;-65
2024/01/07 18:19:26;;;;;;;3.70;1.53;;;;;;;2.91;50.65;101169.41;4909259;29;20223;-65
2024/01/07 18:21:55;;;;;;;14.13;1.83;;;;;;;2.87;50.84;101173.97;4907753;29;20678;-66
2024/01/07 18:24:24;;;;;;;3.37;1.43;;;;;;;2.87;51.01;101173.97;4910766;29;20249;-63
2024/01/07 18:26:55;;;;;;;2.77;1.47;;;;;;;2.84;50.62;101175.91;4909272;29;20279;-65
2024/01/07 18:29:24;;;;;;;3.07;1.20;;;;;;;2.78;50.54;101184.94;4908400;29;20215;-65
2024/01/07 18:31:55;;;;;;;4.83;1.30;;;;;;;2.78;50.31;101178.84;4908353;29;20383;-65
2024/01/07 18:34:24;;;;;;;5.97;1.40;;;;;;;2.78;50.32;101190.19;4907330;29;20246;-65
2024/01/07 18:36:54;;;;;;;4.57;1.67;;;;;;;2.85;49.92;101185.47;4909531;29;20696;-65
2024/01/07 18:39:23;;;;;;;2.73;1.10;;;;;;;2.77;49.75;101203.34;4909635;29;20219;-64
2024/01/07 18:41:52;;;;;;;2.73;1.23;;;;;;;2.77;49.47;101200.72;4909158;29;20217;-65
2024/01/07 18:44:20;;;;;;;4.27;1.20;;;;;;;2.83;49.99;101192.53;4908517;29;20206;-65
2024/01/07 18:46:48;;;;;;;3.03;1.03;;;;;;;2.88;49.32;101208.88;4908877;29;20223;-65
2024/01/07 18:49:16;;;;;;;5.63;1.23;;;;;;;2.84;49.47;101200.31;4909215;29;20946;-65
2024/01/07 18:51:46;;;;;;;3.63;1.60;;;;;;;2.91;49.93;101206.06;4908203;29;20333;-64
2024/01/07 18:54:16;;;;;;;5.27;1.77;;;;;;;2.91;49.57;101206.06;4909517;29;20245;-65
2024/01/07 18:56:44;;;;;;;5.37;1.60;;;;;;;2.95;49.73;101218.09;4910466;29;20207;-65
2024/01/07 18:59:13;;;;;;;4.10;1.77;;;;;;;2.96;49.03;101214.56;4907580;29;20203;-65
2024/01/07 19:01:42;;;;;;;2.63;1.20;;;;;;;2.97;49.19;101216.25;4905139;29;20341;-65
2024/01/07 19:04:10;;;;;;;3.07;1.40;;;;;;;2.97;49.19;101205.78;4907133;29;20216;-65
2024/01/07 19:06:39;;;;;;;4.40;1.40;;;;;;;2.95;49.01;101208.47;4907401;29;20282;-63
2024/01/07 19:09:11;;;;;;;3.20;1.30;;;;;;;2.87;49.40;101220.28;4908756;29;20214;-65
2024/01/07 19:11:43;;;;;;;3.60;1.47;;;;;;;2.78;49.27;101218.16;4906605;29;20213;-65
2024/01/07 19:14:12;;;;;;;3.63;1.57;;;;;;;2.80;49.49;101219.75;4905618;29;20227;-65
2024/01/07 19:16:41;;;;;;;2.97;1.30;;;;;;;2.76;49.45;101223.47;4905741;29;20210;-65
2024/01/07 19:19:11;;;;;;;4.83;1.77;;;;;;;2.82;49.77;101238.00;4905595;29;20604;-65
2024/01/07 19:21:41;;;;;;;4.00;1.70;;;;;;;2.90;49.62;101236.66;4904214;29;20226;-64
2024/01/07 19:24:09;;;;;;;3.33;1.40;;;;;;;2.90;49.32;101241.09;4903378;29;21115;-65
2024/01/07 19:26:39;;;;;;;3.70;1.43;;;;;;;2.81;48.88;101236.34;4904570;29;20215;-66
2024/01/07 19:29:11;;;;;;;3.03;1.30;;;;;;;2.76;49.25;101240.94;4907444;29;20211;-65
2024/01/07 19:31:40;;;;;;;2.53;1.30;;;;;;;2.74;49.54;101240.16;4909851;29;20215;-65
2024/01/07 19:34:08;;;;;;;3.23;1.33;;;;;;;2.71;49.26;101235.97;4906014;29;20235;-63
2024/01/07 19:36:41;;;;;;;3.13;1.70;;;;;;;2.69;49.47;101247.44;4908746;29;20670;-64